sensor_id;sensor_type;location;lat;lon;timestamp;P1;durP1;ratioP1;P2;durP2;ratioP2
11791;SDS011;5953;52.372;9.918;2023-01-31T00:01:34;16.87;;;2.60;;
11791;SDS011;5953;52.372;9.918;2023-01-31T00:04:06;15.57;;;2.33;;
11791;SDS011;5953;52.372;9.918;2023-01-31T00:06:37;20.67;;;3.63;;
11791;SDS011;5953;52.372;9.918;2023-01-31T00:09:06;16.53;;;3.53;;
11791;SDS011;5953;52.372;9.918;2023-01-31T00:11:36;21.10;;;3.53;;
11791;SDS011;5953;52.372;9.918;2023-01-31T00:14:05;20.60;;;3.87;;
11791;SDS011;5953;52.372;9.918;2023-01-31T00:16:36;15.70;;;3.60;;
11791;SDS011;5953;52.372;9.918;2023-01-31T00:19:06;15.37;;;3.23;;
11791;SDS011;5953;52.372;9.918;2023-01-31T00:21:33;18.07;;;3.80;;
11791;SDS011;5953;52.372;9.918;2023-01-31T00:24:01;17.33;;;3.90;;
11791;SDS011;5953;52.372;9.918;2023-01-31T00:26:31;18.87;;;3.43;;
11791;SDS011;5953;52.372;9.918;2023-01-31T00:29:01;17.77;;;3.20;;
11791;SDS011;5953;52.372;9.918;2023-01-31T00:31:31;11.93;;;3.13;;
11791;SDS011;5953;52.372;9.918;2023-01-31T00:34:00;13.27;;;2.87;;
11791;SDS011;5953;52.372;9.918;2023-01-31T00:36:30;13.50;;;3.43;;
11791;SDS011;5953;52.372;9.918;2023-01-31T00:39:01;11.67;;;2.93;;
11791;SDS011;5953;52.372;9.918;2023-01-31T00:41:31;10.17;;;2.90;;
11791;SDS011;5953;52.372;9.918;2023-01-31T00:43:59;12.67;;;2.87;;
11791;SDS011;5953;52.372;9.918;2023-01-31T00:46:27;20.63;;;3.77;;
11791;SDS011;5953;52.372;9.918;2023-01-31T00:48:55;14.23;;;3.17;;
11791;SDS011;5953;52.372;9.918;2023-01-31T00:51:24;15.90;;;3.03;;
11791;SDS011;5953;52.372;9.918;2023-01-31T00:53:54;12.70;;;3.03;;
11791;SDS011;5953;52.372;9.918;2023-01-31T00:56:23;10.77;;;2.60;;
11791;SDS011;5953;52.372;9.918;2023-01-31T00:58:51;12.73;;;2.60;;
11791;SDS011;5953;52.372;9.918;2023-01-31T01:01:19;13.30;;;2.17;;
11791;SDS011;5953;52.372;9.918;2023-01-31T01:03:49;15.07;;;2.90;;
11791;SDS011;5953;52.372;9.918;2023-01-31T01:06:16;7.80;;;2.20;;
11791;SDS011;5953;52.372;9.918;2023-01-31T01:08:45;8.77;;;2.70;;
11791;SDS011;5953;52.372;9.918;2023-01-31T01:11:15;12.03;;;2.33;;
11791;SDS011;5953;52.372;9.918;2023-01-31T01:13:45;13.23;;;2.50;;
11791;SDS011;5953;52.372;9.918;2023-01-31T01:16:14;9.60;;;2.50;;
11791;SDS011;5953;52.372;9.918;2023-01-31T01:18:43;12.40;;;2.50;;
11791;SDS011;5953;52.372;9.918;2023-01-31T01:21:14;16.27;;;2.00;;
11791;SDS011;5953;52.372;9.918;2023-01-31T01:23:44;9.43;;;2.53;;
11791;SDS011;5953;52.372;9.918;2023-01-31T01:26:12;16.57;;;2.67;;
11791;SDS011;5953;52.372;9.918;2023-01-31T01:28:42;13.63;;;3.03;;
11791;SDS011;5953;52.372;9.918;2023-01-31T01:31:11;13.63;;;2.93;;
11791;SDS011;5953;52.372;9.918;2023-01-31T01:33:42;13.63;;;3.17;;
11791;SDS011;5953;52.372;9.918;2023-01-31T01:36:10;12.90;;;2.70;;
11791;SDS011;5953;52.372;9.918;2023-01-31T01:38:41;13.73;;;3.20;;
11791;SDS011;5953;52.372;9.918;2023-01-31T01:41:10;18.03;;;2.87;;
11791;SDS011;5953;52.372;9.918;2023-01-31T01:43:41;13.67;;;2.50;;
11791;SDS011;5953;52.372;9.918;2023-01-31T01:46:11;11.63;;;2.20;;
11791;SDS011;5953;52.372;9.918;2023-01-31T01:48:41;14.03;;;2.43;;
11791;SDS011;5953;52.372;9.918;2023-01-31T01:51:13;15.57;;;2.50;;
11791;SDS011;5953;52.372;9.918;2023-01-31T01:53:45;11.63;;;2.63;;
11791;SDS011;5953;52.372;9.918;2023-01-31T01:56:18;13.10;;;2.97;;
11791;SDS011;5953;52.372;9.918;2023-01-31T01:58:51;16.77;;;3.67;;
11791;SDS011;5953;52.372;9.918;2023-01-31T02:01:27;16.40;;;3.40;;
11791;SDS011;5953;52.372;9.918;2023-01-31T02:03:58;18.40;;;3.47;;
11791;SDS011;5953;52.372;9.918;2023-01-31T02:06:26;14.00;;;2.97;;
11791;SDS011;5953;52.372;9.918;2023-01-31T02:08:54;12.10;;;3.10;;
11791;SDS011;5953;52.372;9.918;2023-01-31T02:11:23;21.00;;;3.60;;
11791;SDS011;5953;52.372;9.918;2023-01-31T02:13:55;14.07;;;3.03;;
11791;SDS011;5953;52.372;9.918;2023-01-31T02:16:26;14.67;;;4.03;;
11791;SDS011;5953;52.372;9.918;2023-01-31T02:18:54;18.10;;;3.10;;
11791;SDS011;5953;52.372;9.918;2023-01-31T02:21:37;16.57;;;3.00;;
11791;SDS011;5953;52.372;9.918;2023-01-31T02:24:37;17.80;;;3.30;;
11791;SDS011;5953;52.372;9.918;2023-01-31T02:27:38;15.57;;;3.47;;
11791;SDS011;5953;52.372;9.918;2023-01-31T02:30:36;17.73;;;3.40;;
11791;SDS011;5953;52.372;9.918;2023-01-31T02:33:23;15.07;;;2.37;;
11791;SDS011;5953;52.372;9.918;2023-01-31T02:35:57;16.40;;;2.70;;
11791;SDS011;5953;52.372;9.918;2023-01-31T02:38:38;8.90;;;2.63;;
11791;SDS011;5953;52.372;9.918;2023-01-31T02:41:15;8.37;;;3.40;;
11791;SDS011;5953;52.372;9.918;2023-01-31T02:43:51;14.07;;;2.67;;
11791;SDS011;5953;52.372;9.918;2023-01-31T02:46:40;10.07;;;2.53;;
11791;SDS011;5953;52.372;9.918;2023-01-31T02:49:36;11.00;;;2.90;;
11791;SDS011;5953;52.372;9.918;2023-01-31T02:52:21;14.17;;;3.07;;
11791;SDS011;5953;52.372;9.918;2023-01-31T02:55:14;18.17;;;3.17;;
11791;SDS011;5953;52.372;9.918;2023-01-31T02:58:04;10.83;;;2.97;;
11791;SDS011;5953;52.372;9.918;2023-01-31T03:00:43;8.87;;;2.30;;
11791;SDS011;5953;52.372;9.918;2023-01-31T03:03:23;11.83;;;2.77;;
11791;SDS011;5953;52.372;9.918;2023-01-31T03:09:39;14.47;;;3.13;;
11791;SDS011;5953;52.372;9.918;2023-01-31T03:12:34;9.60;;;2.67;;
11791;SDS011;5953;52.372;9.918;2023-01-31T03:16:08;15.50;;;3.33;;
11791;SDS011;5953;52.372;9.918;2023-01-31T03:19:42;12.87;;;2.60;;
11791;SDS011;5953;52.372;9.918;2023-01-31T03:23:04;13.20;;;2.90;;
11791;SDS011;5953;52.372;9.918;2023-01-31T03:26:06;21.77;;;3.73;;
11791;SDS011;5953;52.372;9.918;2023-01-31T03:29:00;11.73;;;3.23;;
11791;SDS011;5953;52.372;9.918;2023-01-31T03:32:34;18.57;;;3.93;;
11791;SDS011;5953;52.372;9.918;2023-01-31T03:35:59;24.67;;;3.33;;
11791;SDS011;5953;52.372;9.918;2023-01-31T03:38:47;16.23;;;2.93;;
11791;SDS011;5953;52.372;9.918;2023-01-31T03:42:11;14.93;;;2.73;;
11791;SDS011;5953;52.372;9.918;2023-01-31T03:45:16;18.70;;;3.57;;
11791;SDS011;5953;52.372;9.918;2023-01-31T03:48:09;14.93;;;3.33;;
11791;SDS011;5953;52.372;9.918;2023-01-31T03:54:38;17.73;;;3.13;;
11791;SDS011;5953;52.372;9.918;2023-01-31T04:00:35;14.20;;;2.47;;
11791;SDS011;5953;52.372;9.918;2023-01-31T04:03:35;11.80;;;2.90;;
11791;SDS011;5953;52.372;9.918;2023-01-31T04:06:37;20.07;;;3.10;;
11791;SDS011;5953;52.372;9.918;2023-01-31T04:09:49;11.60;;;2.67;;
11791;SDS011;5953;52.372;9.918;2023-01-31T04:12:36;17.77;;;3.07;;
11791;SDS011;5953;52.372;9.918;2023-01-31T04:15:25;9.47;;;2.20;;
11791;SDS011;5953;52.372;9.918;2023-01-31T04:18:09;12.77;;;2.87;;
11791;SDS011;5953;52.372;9.918;2023-01-31T04:20:56;14.57;;;2.53;;
11791;SDS011;5953;52.372;9.918;2023-01-31T04:24:11;13.73;;;2.87;;
11791;SDS011;5953;52.372;9.918;2023-01-31T04:27:16;11.93;;;2.47;;
11791;SDS011;5953;52.372;9.918;2023-01-31T04:37:29;14.47;;;2.53;;
11791;SDS011;5953;52.372;9.918;2023-01-31T04:40:54;18.13;;;3.20;;
11791;SDS011;5953;52.372;9.918;2023-01-31T04:44:01;13.70;;;2.23;;
11791;SDS011;5953;52.372;9.918;2023-01-31T04:46:49;16.60;;;3.20;;
11791;SDS011;5953;52.372;9.918;2023-01-31T04:49:36;12.13;;;3.17;;
11791;SDS011;5953;52.372;9.918;2023-01-31T04:52:16;13.83;;;2.47;;
11791;SDS011;5953;52.372;9.918;2023-01-31T04:55:02;11.87;;;2.73;;
11791;SDS011;5953;52.372;9.918;2023-01-31T04:57:49;15.00;;;3.87;;
11791;SDS011;5953;52.372;9.918;2023-01-31T05:00:37;17.40;;;3.63;;
11791;SDS011;5953;52.372;9.918;2023-01-31T05:03:25;11.80;;;3.23;;
11791;SDS011;5953;52.372;9.918;2023-01-31T05:06:19;17.53;;;3.03;;
11791;SDS011;5953;52.372;9.918;2023-01-31T05:09:17;12.23;;;2.17;;
11791;SDS011;5953;52.372;9.918;2023-01-31T05:11:50;15.60;;;2.87;;
11791;SDS011;5953;52.372;9.918;2023-01-31T05:14:48;13.03;;;2.43;;
11791;SDS011;5953;52.372;9.918;2023-01-31T05:17:23;10.13;;;2.53;;
11791;SDS011;5953;52.372;9.918;2023-01-31T05:19:56;12.70;;;2.80;;
11791;SDS011;5953;52.372;9.918;2023-01-31T05:22:30;8.53;;;2.30;;
11791;SDS011;5953;52.372;9.918;2023-01-31T05:25:03;15.40;;;2.87;;
11791;SDS011;5953;52.372;9.918;2023-01-31T05:27:35;14.77;;;3.03;;
11791;SDS011;5953;52.372;9.918;2023-01-31T05:30:11;11.17;;;2.73;;
11791;SDS011;5953;52.372;9.918;2023-01-31T05:32:52;10.77;;;2.20;;
11791;SDS011;5953;52.372;9.918;2023-01-31T05:39:13;13.60;;;2.80;;
11791;SDS011;5953;52.372;9.918;2023-01-31T05:41:46;7.97;;;2.33;;
11791;SDS011;5953;52.372;9.918;2023-01-31T05:44:20;9.93;;;2.57;;
11791;SDS011;5953;52.372;9.918;2023-01-31T05:46:52;10.73;;;2.37;;
11791;SDS011;5953;52.372;9.918;2023-01-31T05:49:25;12.50;;;2.20;;
11791;SDS011;5953;52.372;9.918;2023-01-31T05:52:08;16.40;;;2.83;;
11791;SDS011;5953;52.372;9.918;2023-01-31T05:54:42;12.87;;;2.63;;
11791;SDS011;5953;52.372;9.918;2023-01-31T05:57:10;15.13;;;2.90;;
11791;SDS011;5953;52.372;9.918;2023-01-31T05:59:40;14.67;;;2.87;;
11791;SDS011;5953;52.372;9.918;2023-01-31T06:02:08;13.87;;;2.87;;
11791;SDS011;5953;52.372;9.918;2023-01-31T06:04:49;9.43;;;2.63;;
11791;SDS011;5953;52.372;9.918;2023-01-31T06:07:44;10.70;;;2.60;;
11791;SDS011;5953;52.372;9.918;2023-01-31T06:10:17;13.77;;;2.77;;
11791;SDS011;5953;52.372;9.918;2023-01-31T06:12:53;14.30;;;2.93;;
11791;SDS011;5953;52.372;9.918;2023-01-31T06:15:22;16.60;;;3.23;;
11791;SDS011;5953;52.372;9.918;2023-01-31T06:17:54;11.70;;;3.17;;
11791;SDS011;5953;52.372;9.918;2023-01-31T06:20:34;12.43;;;2.97;;
11791;SDS011;5953;52.372;9.918;2023-01-31T06:23:04;14.80;;;3.17;;
11791;SDS011;5953;52.372;9.918;2023-01-31T06:25:36;15.23;;;3.60;;
11791;SDS011;5953;52.372;9.918;2023-01-31T06:28:17;12.23;;;3.63;;
11791;SDS011;5953;52.372;9.918;2023-01-31T06:30:45;13.13;;;2.93;;
11791;SDS011;5953;52.372;9.918;2023-01-31T06:33:13;11.87;;;3.53;;
11791;SDS011;5953;52.372;9.918;2023-01-31T06:35:41;14.53;;;3.17;;
11791;SDS011;5953;52.372;9.918;2023-01-31T06:38:09;10.57;;;2.63;;
11791;SDS011;5953;52.372;9.918;2023-01-31T06:40:39;15.10;;;3.80;;
11791;SDS011;5953;52.372;9.918;2023-01-31T06:43:07;8.67;;;2.33;;
11791;SDS011;5953;52.372;9.918;2023-01-31T06:45:37;11.67;;;2.20;;
11791;SDS011;5953;52.372;9.918;2023-01-31T06:48:05;18.40;;;3.23;;
11791;SDS011;5953;52.372;9.918;2023-01-31T06:50:38;9.47;;;2.43;;
11791;SDS011;5953;52.372;9.918;2023-01-31T06:53:08;12.97;;;2.73;;
11791;SDS011;5953;52.372;9.918;2023-01-31T06:55:37;13.93;;;3.33;;
11791;SDS011;5953;52.372;9.918;2023-01-31T06:58:14;11.00;;;2.83;;
11791;SDS011;5953;52.372;9.918;2023-01-31T07:00:46;14.20;;;2.73;;
11791;SDS011;5953;52.372;9.918;2023-01-31T07:03:27;12.60;;;3.17;;
11791;SDS011;5953;52.372;9.918;2023-01-31T07:07:01;17.53;;;3.03;;
11791;SDS011;5953;52.372;9.918;2023-01-31T07:09:49;9.17;;;2.80;;
11791;SDS011;5953;52.372;9.918;2023-01-31T07:12:19;13.87;;;3.70;;
11791;SDS011;5953;52.372;9.918;2023-01-31T07:15:02;14.20;;;2.67;;
11791;SDS011;5953;52.372;9.918;2023-01-31T07:18:24;15.97;;;3.83;;
11791;SDS011;5953;52.372;9.918;2023-01-31T07:20:59;15.37;;;3.67;;
11791;SDS011;5953;52.372;9.918;2023-01-31T07:24:04;14.23;;;3.57;;
11791;SDS011;5953;52.372;9.918;2023-01-31T07:26:51;13.07;;;3.87;;
11791;SDS011;5953;52.372;9.918;2023-01-31T07:37:55;14.67;;;3.90;;
11791;SDS011;5953;52.372;9.918;2023-01-31T07:40:27;18.63;;;4.53;;
11791;SDS011;5953;52.372;9.918;2023-01-31T07:43:00;17.77;;;4.67;;
11791;SDS011;5953;52.372;9.918;2023-01-31T07:45:33;16.07;;;4.70;;
11791;SDS011;5953;52.372;9.918;2023-01-31T07:48:03;15.57;;;5.10;;
11791;SDS011;5953;52.372;9.918;2023-01-31T07:50:35;14.57;;;4.77;;
11791;SDS011;5953;52.372;9.918;2023-01-31T07:53:11;20.17;;;5.50;;
11791;SDS011;5953;52.372;9.918;2023-01-31T07:55:41;16.43;;;4.93;;
11791;SDS011;5953;52.372;9.918;2023-01-31T07:58:13;18.73;;;5.73;;
11791;SDS011;5953;52.372;9.918;2023-01-31T08:00:45;15.50;;;5.67;;
11791;SDS011;5953;52.372;9.918;2023-01-31T08:03:32;19.43;;;5.50;;
11791;SDS011;5953;52.372;9.918;2023-01-31T08:06:22;18.13;;;5.83;;
11791;SDS011;5953;52.372;9.918;2023-01-31T08:08:57;16.70;;;5.87;;
11791;SDS011;5953;52.372;9.918;2023-01-31T08:11:35;16.10;;;5.67;;
11791;SDS011;5953;52.372;9.918;2023-01-31T08:14:08;19.77;;;5.83;;
11791;SDS011;5953;52.372;9.918;2023-01-31T08:16:42;19.17;;;5.10;;
11791;SDS011;5953;52.372;9.918;2023-01-31T08:19:22;15.37;;;4.67;;
11791;SDS011;5953;52.372;9.918;2023-01-31T08:21:58;19.13;;;5.60;;
11791;SDS011;5953;52.372;9.918;2023-01-31T08:27:40;19.63;;;5.40;;
11791;SDS011;5953;52.372;9.918;2023-01-31T08:30:21;15.60;;;5.03;;
11791;SDS011;5953;52.372;9.918;2023-01-31T08:33:22;19.10;;;5.57;;
11791;SDS011;5953;52.372;9.918;2023-01-31T08:36:10;19.97;;;5.67;;
11791;SDS011;5953;52.372;9.918;2023-01-31T08:39:02;21.03;;;5.50;;
11791;SDS011;5953;52.372;9.918;2023-01-31T08:41:43;14.10;;;4.33;;
11791;SDS011;5953;52.372;9.918;2023-01-31T08:44:15;18.03;;;5.03;;
11791;SDS011;5953;52.372;9.918;2023-01-31T08:47:12;17.63;;;4.27;;
11791;SDS011;5953;52.372;9.918;2023-01-31T08:49:46;16.97;;;5.70;;
11791;SDS011;5953;52.372;9.918;2023-01-31T08:52:58;18.77;;;5.77;;
11791;SDS011;5953;52.372;9.918;2023-01-31T08:55:43;18.73;;;5.30;;
11791;SDS011;5953;52.372;9.918;2023-01-31T08:58:17;26.97;;;6.53;;
11791;SDS011;5953;52.372;9.918;2023-01-31T09:00:51;18.23;;;6.73;;
11791;SDS011;5953;52.372;9.918;2023-01-31T09:03:22;18.87;;;6.80;;
11791;SDS011;5953;52.372;9.918;2023-01-31T09:06:01;20.20;;;8.00;;
11791;SDS011;5953;52.372;9.918;2023-01-31T09:08:42;20.17;;;6.67;;
11791;SDS011;5953;52.372;9.918;2023-01-31T09:11:22;19.07;;;6.47;;
11791;SDS011;5953;52.372;9.918;2023-01-31T09:14:05;18.07;;;6.50;;
11791;SDS011;5953;52.372;9.918;2023-01-31T09:16:53;16.10;;;6.63;;
11791;SDS011;5953;52.372;9.918;2023-01-31T09:19:29;16.60;;;6.63;;
11791;SDS011;5953;52.372;9.918;2023-01-31T09:21:57;19.73;;;7.73;;
11791;SDS011;5953;52.372;9.918;2023-01-31T09:24:25;18.00;;;7.10;;
11791;SDS011;5953;52.372;9.918;2023-01-31T09:26:53;21.37;;;7.87;;
11791;SDS011;5953;52.372;9.918;2023-01-31T09:29:23;19.70;;;6.63;;
11791;SDS011;5953;52.372;9.918;2023-01-31T09:31:51;19.73;;;7.80;;
11791;SDS011;5953;52.372;9.918;2023-01-31T09:34:19;16.27;;;6.20;;
11791;SDS011;5953;52.372;9.918;2023-01-31T09:36:48;18.20;;;6.57;;
11791;SDS011;5953;52.372;9.918;2023-01-31T09:39:15;19.07;;;6.33;;
11791;SDS011;5953;52.372;9.918;2023-01-31T09:41:43;22.43;;;6.67;;
11791;SDS011;5953;52.372;9.918;2023-01-31T09:44:13;20.33;;;7.87;;
11791;SDS011;5953;52.372;9.918;2023-01-31T09:46:48;18.13;;;6.40;;
11791;SDS011;5953;52.372;9.918;2023-01-31T09:49:21;16.40;;;5.97;;
11791;SDS011;5953;52.372;9.918;2023-01-31T09:51:53;15.37;;;7.10;;
11791;SDS011;5953;52.372;9.918;2023-01-31T09:54:25;17.47;;;7.67;;
11791;SDS011;5953;52.372;9.918;2023-01-31T09:57:00;16.40;;;7.80;;
11791;SDS011;5953;52.372;9.918;2023-01-31T09:59:37;15.83;;;7.50;;
11791;SDS011;5953;52.372;9.918;2023-01-31T10:02:13;18.93;;;8.03;;
11791;SDS011;5953;52.372;9.918;2023-01-31T10:05:01;19.43;;;8.37;;
11791;SDS011;5953;52.372;9.918;2023-01-31T10:07:39;15.87;;;8.40;;
11791;SDS011;5953;52.372;9.918;2023-01-31T10:10:14;16.63;;;7.70;;
11791;SDS011;5953;52.372;9.918;2023-01-31T10:12:48;20.93;;;8.17;;
11791;SDS011;5953;52.372;9.918;2023-01-31T10:15:24;14.80;;;8.63;;
11791;SDS011;5953;52.372;9.918;2023-01-31T10:17:58;14.37;;;6.90;;
11791;SDS011;5953;52.372;9.918;2023-01-31T10:20:31;16.83;;;7.10;;
11791;SDS011;5953;52.372;9.918;2023-01-31T10:23:03;13.07;;;7.60;;
11791;SDS011;5953;52.372;9.918;2023-01-31T10:25:37;11.47;;;5.67;;
11791;SDS011;5953;52.372;9.918;2023-01-31T10:28:10;12.27;;;6.63;;
11791;SDS011;5953;52.372;9.918;2023-01-31T10:30:42;14.33;;;6.73;;
11791;SDS011;5953;52.372;9.918;2023-01-31T10:33:18;12.00;;;5.80;;
11791;SDS011;5953;52.372;9.918;2023-01-31T10:35:51;11.17;;;5.13;;
11791;SDS011;5953;52.372;9.918;2023-01-31T10:38:23;9.20;;;4.93;;
11791;SDS011;5953;52.372;9.918;2023-01-31T10:40:55;10.07;;;5.80;;
11791;SDS011;5953;52.372;9.918;2023-01-31T10:43:30;12.63;;;6.17;;
11791;SDS011;5953;52.372;9.918;2023-01-31T10:46:07;12.20;;;5.80;;
11791;SDS011;5953;52.372;9.918;2023-01-31T10:48:39;11.43;;;4.53;;
11791;SDS011;5953;52.372;9.918;2023-01-31T10:51:17;7.73;;;5.10;;
11791;SDS011;5953;52.372;9.918;2023-01-31T10:54:09;10.60;;;5.30;;
11791;SDS011;5953;52.372;9.918;2023-01-31T10:56:45;8.43;;;5.40;;
11791;SDS011;5953;52.372;9.918;2023-01-31T10:59:17;12.37;;;5.07;;
11791;SDS011;5953;52.372;9.918;2023-01-31T11:01:49;12.33;;;6.07;;
11791;SDS011;5953;52.372;9.918;2023-01-31T11:04:22;13.17;;;5.93;;
11791;SDS011;5953;52.372;9.918;2023-01-31T11:06:54;11.47;;;5.60;;
11791;SDS011;5953;52.372;9.918;2023-01-31T11:09:25;10.50;;;5.57;;
11791;SDS011;5953;52.372;9.918;2023-01-31T11:11:57;12.97;;;5.93;;
11791;SDS011;5953;52.372;9.918;2023-01-31T11:14:26;15.20;;;6.80;;
11791;SDS011;5953;52.372;9.918;2023-01-31T11:16:56;14.17;;;6.77;;
11791;SDS011;5953;52.372;9.918;2023-01-31T11:19:31;12.97;;;5.77;;
11791;SDS011;5953;52.372;9.918;2023-01-31T11:22:02;10.90;;;5.27;;
11791;SDS011;5953;52.372;9.918;2023-01-31T11:24:31;12.73;;;6.00;;
11791;SDS011;5953;52.372;9.918;2023-01-31T11:27:01;9.87;;;6.07;;
11791;SDS011;5953;52.372;9.918;2023-01-31T11:29:31;12.37;;;5.83;;
11791;SDS011;5953;52.372;9.918;2023-01-31T11:32:03;12.27;;;5.93;;
11791;SDS011;5953;52.372;9.918;2023-01-31T11:34:34;13.97;;;5.83;;
11791;SDS011;5953;52.372;9.918;2023-01-31T11:37:03;17.07;;;8.13;;
11791;SDS011;5953;52.372;9.918;2023-01-31T11:39:38;12.03;;;6.07;;
11791;SDS011;5953;52.372;9.918;2023-01-31T11:42:13;10.83;;;5.20;;
11791;SDS011;5953;52.372;9.918;2023-01-31T11:44:52;16.17;;;6.30;;
11791;SDS011;5953;52.372;9.918;2023-01-31T11:47:23;14.03;;;6.53;;
11791;SDS011;5953;52.372;9.918;2023-01-31T11:49:58;15.70;;;7.03;;
11791;SDS011;5953;52.372;9.918;2023-01-31T11:52:28;12.63;;;6.73;;
11791;SDS011;5953;52.372;9.918;2023-01-31T11:54:57;18.20;;;6.97;;
11791;SDS011;5953;52.372;9.918;2023-01-31T11:57:28;11.57;;;7.30;;
11791;SDS011;5953;52.372;9.918;2023-01-31T11:59:58;12.03;;;7.30;;
11791;SDS011;5953;52.372;9.918;2023-01-31T12:02:31;15.83;;;7.37;;
11791;SDS011;5953;52.372;9.918;2023-01-31T12:05:10;16.37;;;7.13;;
11791;SDS011;5953;52.372;9.918;2023-01-31T12:07:42;15.60;;;7.20;;
11791;SDS011;5953;52.372;9.918;2023-01-31T12:10:25;11.20;;;7.57;;
11791;SDS011;5953;52.372;9.918;2023-01-31T12:12:57;15.63;;;7.93;;
11791;SDS011;5953;52.372;9.918;2023-01-31T12:15:44;17.60;;;8.17;;
11791;SDS011;5953;52.372;9.918;2023-01-31T12:18:18;15.93;;;7.57;;
11791;SDS011;5953;52.372;9.918;2023-01-31T12:20:57;20.13;;;7.67;;
11791;SDS011;5953;52.372;9.918;2023-01-31T12:23:34;15.47;;;8.47;;
11791;SDS011;5953;52.372;9.918;2023-01-31T12:26:13;16.43;;;8.60;;
11791;SDS011;5953;52.372;9.918;2023-01-31T12:28:55;15.53;;;8.03;;
11791;SDS011;5953;52.372;9.918;2023-01-31T12:31:44;14.93;;;7.60;;
11791;SDS011;5953;52.372;9.918;2023-01-31T12:34:30;12.47;;;7.60;;
11791;SDS011;5953;52.372;9.918;2023-01-31T12:37:31;16.77;;;8.07;;
11791;SDS011;5953;52.372;9.918;2023-01-31T12:40:11;15.27;;;7.77;;
11791;SDS011;5953;52.372;9.918;2023-01-31T12:42:55;14.40;;;7.57;;
11791;SDS011;5953;52.372;9.918;2023-01-31T12:45:31;15.37;;;7.90;;
11791;SDS011;5953;52.372;9.918;2023-01-31T12:48:14;19.97;;;8.50;;
11791;SDS011;5953;52.372;9.918;2023-01-31T12:54:13;18.13;;;8.33;;
11791;SDS011;5953;52.372;9.918;2023-01-31T12:56:54;15.53;;;8.20;;
11791;SDS011;5953;52.372;9.918;2023-01-31T12:59:33;11.30;;;8.40;;
11791;SDS011;5953;52.372;9.918;2023-01-31T13:02:24;17.70;;;9.43;;
11791;SDS011;5953;52.372;9.918;2023-01-31T13:05:08;15.03;;;9.93;;
11791;SDS011;5953;52.372;9.918;2023-01-31T13:07:54;19.90;;;10.23;;
11791;SDS011;5953;52.372;9.918;2023-01-31T13:10:34;16.30;;;10.80;;
11791;SDS011;5953;52.372;9.918;2023-01-31T13:13:09;16.73;;;11.43;;
11791;SDS011;5953;52.372;9.918;2023-01-31T13:15:43;22.83;;;12.53;;
11791;SDS011;5953;52.372;9.918;2023-01-31T13:18:15;22.10;;;11.97;;
11791;SDS011;5953;52.372;9.918;2023-01-31T13:20:45;19.93;;;12.97;;
11791;SDS011;5953;52.372;9.918;2023-01-31T13:23:18;19.93;;;12.27;;
11791;SDS011;5953;52.372;9.918;2023-01-31T13:25:50;20.87;;;14.27;;
11791;SDS011;5953;52.372;9.918;2023-01-31T13:28:23;17.13;;;13.10;;
11791;SDS011;5953;52.372;9.918;2023-01-31T13:30:55;23.27;;;13.27;;
11791;SDS011;5953;52.372;9.918;2023-01-31T13:33:28;18.53;;;13.57;;
11791;SDS011;5953;52.372;9.918;2023-01-31T13:36:18;24.17;;;13.50;;
11791;SDS011;5953;52.372;9.918;2023-01-31T13:38:50;16.27;;;12.27;;
11791;SDS011;5953;52.372;9.918;2023-01-31T13:41:25;22.80;;;13.40;;
11791;SDS011;5953;52.372;9.918;2023-01-31T13:43:54;14.27;;;12.23;;
11791;SDS011;5953;52.372;9.918;2023-01-31T13:46:23;19.10;;;12.97;;
11791;SDS011;5953;52.372;9.918;2023-01-31T13:48:57;21.13;;;13.97;;
11791;SDS011;5953;52.372;9.918;2023-01-31T13:51:28;18.43;;;11.73;;
11791;SDS011;5953;52.372;9.918;2023-01-31T13:54:03;17.30;;;12.20;;
11791;SDS011;5953;52.372;9.918;2023-01-31T13:56:39;15.23;;;11.67;;
11791;SDS011;5953;52.372;9.918;2023-01-31T13:59:08;15.97;;;11.10;;
11791;SDS011;5953;52.372;9.918;2023-01-31T14:01:42;15.17;;;10.47;;
11791;SDS011;5953;52.372;9.918;2023-01-31T14:04:20;18.43;;;11.53;;
11791;SDS011;5953;52.372;9.918;2023-01-31T14:06:57;15.40;;;9.83;;
11791;SDS011;5953;52.372;9.918;2023-01-31T14:09:42;14.67;;;10.47;;
11791;SDS011;5953;52.372;9.918;2023-01-31T14:12:32;16.50;;;9.03;;
11791;SDS011;5953;52.372;9.918;2023-01-31T14:15:06;15.77;;;9.47;;
11791;SDS011;5953;52.372;9.918;2023-01-31T14:17:58;10.70;;;8.63;;
11791;SDS011;5953;52.372;9.918;2023-01-31T14:20:28;9.90;;;7.97;;
11791;SDS011;5953;52.372;9.918;2023-01-31T14:25:56;7.33;;;6.63;;
11791;SDS011;5953;52.372;9.918;2023-01-31T14:28:25;8.57;;;6.90;;
11791;SDS011;5953;52.372;9.918;2023-01-31T14:30:54;9.73;;;6.87;;
11791;SDS011;5953;52.372;9.918;2023-01-31T14:33:26;8.23;;;7.20;;
11791;SDS011;5953;52.372;9.918;2023-01-31T14:36:05;8.87;;;5.97;;
11791;SDS011;5953;52.372;9.918;2023-01-31T14:42:12;8.03;;;5.70;;
11791;SDS011;5953;52.372;9.918;2023-01-31T14:44:58;7.73;;;4.83;;
11791;SDS011;5953;52.372;9.918;2023-01-31T14:47:45;7.70;;;6.03;;
11791;SDS011;5953;52.372;9.918;2023-01-31T14:50:23;8.80;;;5.87;;
11791;SDS011;5953;52.372;9.918;2023-01-31T14:53:05;6.33;;;5.47;;
11791;SDS011;5953;52.372;9.918;2023-01-31T14:58:32;6.73;;;5.17;;
11791;SDS011;5953;52.372;9.918;2023-01-31T15:01:03;5.63;;;4.90;;
11791;SDS011;5953;52.372;9.918;2023-01-31T15:03:34;7.20;;;4.63;;
11791;SDS011;5953;52.372;9.918;2023-01-31T15:06:05;6.73;;;4.47;;
11791;SDS011;5953;52.372;9.918;2023-01-31T15:08:43;9.50;;;4.27;;
11791;SDS011;5953;52.372;9.918;2023-01-31T15:11:16;5.93;;;4.63;;
11791;SDS011;5953;52.372;9.918;2023-01-31T15:14:18;7.20;;;4.70;;
11791;SDS011;5953;52.372;9.918;2023-01-31T15:17:00;6.03;;;5.17;;
11791;SDS011;5953;52.372;9.918;2023-01-31T15:19:33;8.57;;;5.13;;
11791;SDS011;5953;52.372;9.918;2023-01-31T15:22:09;6.63;;;5.43;;
11791;SDS011;5953;52.372;9.918;2023-01-31T15:24:38;7.07;;;5.60;;
11791;SDS011;5953;52.372;9.918;2023-01-31T15:27:13;8.67;;;5.43;;
11791;SDS011;5953;52.372;9.918;2023-01-31T15:29:49;7.30;;;5.83;;
11791;SDS011;5953;52.372;9.918;2023-01-31T15:32:21;7.90;;;6.33;;
11791;SDS011;5953;52.372;9.918;2023-01-31T15:37:25;7.33;;;5.57;;
11791;SDS011;5953;52.372;9.918;2023-01-31T15:39:58;8.87;;;5.50;;
11791;SDS011;5953;52.372;9.918;2023-01-31T15:42:31;6.77;;;6.07;;
11791;SDS011;5953;52.372;9.918;2023-01-31T15:45:19;9.30;;;6.37;;
11791;SDS011;5953;52.372;9.918;2023-01-31T15:47:56;13.93;;;7.30;;
11791;SDS011;5953;52.372;9.918;2023-01-31T15:50:25;11.27;;;7.23;;
11791;SDS011;5953;52.372;9.918;2023-01-31T15:52:54;11.00;;;6.53;;
11791;SDS011;5953;52.372;9.918;2023-01-31T15:55:22;10.70;;;6.80;;
11791;SDS011;5953;52.372;9.918;2023-01-31T15:57:52;9.80;;;6.60;;
11791;SDS011;5953;52.372;9.918;2023-01-31T16:00:23;10.67;;;7.57;;
11791;SDS011;5953;52.372;9.918;2023-01-31T16:02:53;7.80;;;6.30;;
11791;SDS011;5953;52.372;9.918;2023-01-31T16:05:27;8.47;;;6.00;;
11791;SDS011;5953;52.372;9.918;2023-01-31T16:07:58;7.73;;;5.90;;
11791;SDS011;5953;52.372;9.918;2023-01-31T16:10:26;6.93;;;6.07;;
11791;SDS011;5953;52.372;9.918;2023-01-31T16:12:57;8.53;;;6.07;;
11791;SDS011;5953;52.372;9.918;2023-01-31T16:15:27;9.10;;;7.13;;
11791;SDS011;5953;52.372;9.918;2023-01-31T16:17:57;12.30;;;6.73;;
11791;SDS011;5953;52.372;9.918;2023-01-31T16:20:38;9.83;;;8.03;;
11791;SDS011;5953;52.372;9.918;2023-01-31T16:23:25;11.33;;;7.20;;
11791;SDS011;5953;52.372;9.918;2023-01-31T16:25:57;10.40;;;7.33;;
11791;SDS011;5953;52.372;9.918;2023-01-31T16:28:35;9.40;;;7.03;;
11791;SDS011;5953;52.372;9.918;2023-01-31T16:31:05;8.50;;;7.10;;
11791;SDS011;5953;52.372;9.918;2023-01-31T16:33:34;16.20;;;8.13;;
11791;SDS011;5953;52.372;9.918;2023-01-31T16:36:04;9.20;;;7.17;;
11791;SDS011;5953;52.372;9.918;2023-01-31T16:38:40;9.53;;;4.83;;
11791;SDS011;5953;52.372;9.918;2023-01-31T16:41:09;5.57;;;2.43;;